sensor_id;sensor_type;location;lat;lon;timestamp;temperature;humidity
37408;DHT22;24866;50.248;8.252;2022-11-20T00:01:37;1.30;99.90
37408;DHT22;24866;50.248;8.252;2022-11-20T00:04:10;1.10;99.90
37408;DHT22;24866;50.248;8.252;2022-11-20T00:06:40;1.20;99.90
37408;DHT22;24866;50.248;8.252;2022-11-20T00:09:10;1.30;99.90
37408;DHT22;24866;50.248;8.252;2022-11-20T00:11:42;1.50;99.90
37408;DHT22;24866;50.248;8.252;2022-11-20T00:14:12;1.70;99.90
37408;DHT22;24866;50.248;8.252;2022-11-20T00:16:42;1.70;99.90
37408;DHT22;24866;50.248;8.252;2022-11-20T00:19:12;1.80;99.90
37408;DHT22;24866;50.248;8.252;2022-11-20T00:21:45;1.70;99.90
37408;DHT22;24866;50.248;8.252;2022-11-20T00:24:15;1.70;99.90
37408;DHT22;24866;50.248;8.252;2022-11-20T00:26:48;1.80;99.90
37408;DHT22;24866;50.248;8.252;2022-11-20T00:29:18;1.80;99.90
37408;DHT22;24866;50.248;8.252;2022-11-20T00:31:47;2.00;99.90
37408;DHT22;24866;50.248;8.252;2022-11-20T00:34:17;1.90;99.90
37408;DHT22;24866;50.248;8.252;2022-11-20T00:36:47;1.80;99.90
37408;DHT22;24866;50.248;8.252;2022-11-20T00:39:17;1.90;99.90
37408;DHT22;24866;50.248;8.252;2022-11-20T00:41:48;1.90;99.90
37408;DHT22;24866;50.248;8.252;2022-11-20T00:44:18;2.00;99.90
37408;DHT22;24866;50.248;8.252;2022-11-20T00:46:48;2.10;99.90
37408;DHT22;24866;50.248;8.252;2022-11-20T00:49:18;2.10;99.90
37408;DHT22;24866;50.248;8.252;2022-11-20T00:51:48;1.70;99.90
37408;DHT22;24866;50.248;8.252;2022-11-20T00:54:18;1.80;99.90
37408;DHT22;24866;50.248;8.252;2022-11-20T00:56:49;1.90;99.90
37408;DHT22;24866;50.248;8.252;2022-11-20T00:59:19;1.80;99.90
37408;DHT22;24866;50.248;8.252;2022-11-20T01:01:49;1.80;99.90
37408;DHT22;24866;50.248;8.252;2022-11-20T01:04:19;1.70;99.90
37408;DHT22;24866;50.248;8.252;2022-11-20T01:06:49;1.80;99.90
37408;DHT22;24866;50.248;8.252;2022-11-20T01:09:19;1.90;99.90
37408;DHT22;24866;50.248;8.252;2022-11-20T01:11:50;2.00;99.90
37408;DHT22;24866;50.248;8.252;2022-11-20T01:14:20;2.00;99.90
37408;DHT22;24866;50.248;8.252;2022-11-20T01:16:51;1.90;99.90
37408;DHT22;24866;50.248;8.252;2022-11-20T01:19:22;1.80;99.90
37408;DHT22;24866;50.248;8.252;2022-11-20T01:21:54;1.80;99.90
37408;DHT22;24866;50.248;8.252;2022-11-20T01:24:24;1.60;99.90
37408;DHT22;24866;50.248;8.252;2022-11-20T01:26:55;1.60;99.90
37408;DHT22;24866;50.248;8.252;2022-11-20T01:29:25;1.70;99.90
37408;DHT22;24866;50.248;8.252;2022-11-20T01:31:55;1.60;99.90
37408;DHT22;24866;50.248;8.252;2022-11-20T01:34:25;1.60;99.90
37408;DHT22;24866;50.248;8.252;2022-11-20T01:36:55;1.50;99.90
37408;DHT22;24866;50.248;8.252;2022-11-20T01:39:26;1.70;99.90
37408;DHT22;24866;50.248;8.252;2022-11-20T01:41:57;1.80;99.90
37408;DHT22;24866;50.248;8.252;2022-11-20T01:44:51;1.80;99.90
37408;DHT22;24866;50.248;8.252;2022-11-20T01:47:31;1.70;99.90
37408;DHT22;24866;50.248;8.252;2022-11-20T01:50:05;1.50;99.90
37408;DHT22;24866;50.248;8.252;2022-11-20T01:52:38;1.20;99.90
37408;DHT22;24866;50.248;8.252;2022-11-20T01:55:12;1.20;99.90
37408;DHT22;24866;50.248;8.252;2022-11-20T01:57:44;1.10;99.90
37408;DHT22;24866;50.248;8.252;2022-11-20T02:00:17;1.30;99.90
37408;DHT22;24866;50.248;8.252;2022-11-20T02:02:50;1.10;99.90
37408;DHT22;24866;50.248;8.252;2022-11-20T02:05:25;1.10;99.90
37408;DHT22;24866;50.248;8.252;2022-11-20T02:07:58;1.20;99.90
37408;DHT22;24866;50.248;8.252;2022-11-20T02:10:29;0.90;99.90
37408;DHT22;24866;50.248;8.252;2022-11-20T02:13:01;0.60;99.90
37408;DHT22;24866;50.248;8.252;2022-11-20T02:15:51;0.80;99.90
37408;DHT22;24866;50.248;8.252;2022-11-20T02:18:21;1.00;99.90
37408;DHT22;24866;50.248;8.252;2022-11-20T02:20:56;0.90;99.90
37408;DHT22;24866;50.248;8.252;2022-11-20T02:23:32;0.80;99.90
37408;DHT22;24866;50.248;8.252;2022-11-20T02:26:06;0.50;99.90
37408;DHT22;24866;50.248;8.252;2022-11-20T02:28:38;0.60;99.90
37408;DHT22;24866;50.248;8.252;2022-11-20T02:31:08;0.90;99.90
37408;DHT22;24866;50.248;8.252;2022-11-20T02:33:38;1.10;99.90
37408;DHT22;24866;50.248;8.252;2022-11-20T02:36:09;0.90;99.90
37408;DHT22;24866;50.248;8.252;2022-11-20T02:38:41;0.60;99.90
37408;DHT22;24866;50.248;8.252;2022-11-20T02:41:13;0.60;99.90
37408;DHT22;24866;50.248;8.252;2022-11-20T02:43:43;0.70;99.90
37408;DHT22;24866;50.248;8.252;2022-11-20T02:46:13;0.80;99.90
37408;DHT22;24866;50.248;8.252;2022-11-20T02:48:43;0.60;99.90
37408;DHT22;24866;50.248;8.252;2022-11-20T02:51:13;0.50;99.90
37408;DHT22;24866;50.248;8.252;2022-11-20T02:53:43;0.70;99.90
37408;DHT22;24866;50.248;8.252;2022-11-20T02:56:14;0.70;99.90
37408;DHT22;24866;50.248;8.252;2022-11-20T02:58:44;0.60;99.90
37408;DHT22;24866;50.248;8.252;2022-11-20T03:01:14;0.40;99.90
37408;DHT22;24866;50.248;8.252;2022-11-20T03:03:44;0.60;99.90
37408;DHT22;24866;50.248;8.252;2022-11-20T03:06:16;0.50;99.90
37408;DHT22;24866;50.248;8.252;2022-11-20T03:08:46;0.50;99.90
37408;DHT22;24866;50.248;8.252;2022-11-20T03:11:18;0.50;99.90
37408;DHT22;24866;50.248;8.252;2022-11-20T03:13:48;0.40;99.90
37408;DHT22;24866;50.248;8.252;2022-11-20T03:16:19;0.40;99.90
37408;DHT22;24866;50.248;8.252;2022-11-20T03:18:52;0.30;99.90
37408;DHT22;24866;50.248;8.252;2022-11-20T03:21:22;0.50;99.90
37408;DHT22;24866;50.248;8.252;2022-11-20T03:23:53;0.40;99.90
37408;DHT22;24866;50.248;8.252;2022-11-20T03:26:25;0.50;99.90
37408;DHT22;24866;50.248;8.252;2022-11-20T03:28:57;0.60;99.90
37408;DHT22;24866;50.248;8.252;2022-11-20T03:31:28;0.70;99.90
37408;DHT22;24866;50.248;8.252;2022-11-20T03:33:59;0.90;99.90
37408;DHT22;24866;50.248;8.252;2022-11-20T03:36:29;1.00;99.90
37408;DHT22;24866;50.248;8.252;2022-11-20T03:38:59;1.00;99.90
37408;DHT22;24866;50.248;8.252;2022-11-20T03:41:35;1.10;99.90
37408;DHT22;24866;50.248;8.252;2022-11-20T03:44:06;1.20;99.90
37408;DHT22;24866;50.248;8.252;2022-11-20T03:46:37;1.20;99.90
37408;DHT22;24866;50.248;8.252;2022-11-20T03:49:07;1.10;99.90
37408;DHT22;24866;50.248;8.252;2022-11-20T03:51:37;1.10;99.90
37408;DHT22;24866;50.248;8.252;2022-11-20T03:54:08;1.10;99.90
37408;DHT22;24866;50.248;8.252;2022-11-20T03:56:39;1.10;99.90
37408;DHT22;24866;50.248;8.252;2022-11-20T03:59:10;1.20;99.90
37408;DHT22;24866;50.248;8.252;2022-11-20T04:01:40;1.20;99.90
37408;DHT22;24866;50.248;8.252;2022-11-20T04:04:10;1.30;99.90
37408;DHT22;24866;50.248;8.252;2022-11-20T04:06:39;1.30;99.90
37408;DHT22;24866;50.248;8.252;2022-11-20T04:09:09;1.30;99.90
37408;DHT22;24866;50.248;8.252;2022-11-20T04:11:41;1.40;99.90
37408;DHT22;24866;50.248;8.252;2022-11-20T04:14:13;1.50;99.90
37408;DHT22;24866;50.248;8.252;2022-11-20T04:16:44;1.50;99.90
37408;DHT22;24866;50.248;8.252;2022-11-20T04:19:15;1.60;99.90
37408;DHT22;24866;50.248;8.252;2022-11-20T04:21:45;1.50;99.90
37408;DHT22;24866;50.248;8.252;2022-11-20T04:24:15;1.50;99.90
37408;DHT22;24866;50.248;8.252;2022-11-20T04:26:46;1.50;99.90
37408;DHT22;24866;50.248;8.252;2022-11-20T04:29:16;1.10;99.90
37408;DHT22;24866;50.248;8.252;2022-11-20T04:31:47;1.30;99.90
37408;DHT22;24866;50.248;8.252;2022-11-20T04:34:17;1.10;99.90
37408;DHT22;24866;50.248;8.252;2022-11-20T04:36:47;1.10;99.90
37408;DHT22;24866;50.248;8.252;2022-11-20T04:39:17;0.80;99.90
37408;DHT22;24866;50.248;8.252;2022-11-20T04:41:48;0.80;99.90
37408;DHT22;24866;50.248;8.252;2022-11-20T04:44:38;0.80;99.90
37408;DHT22;24866;50.248;8.252;2022-11-20T04:47:08;0.60;99.90
37408;DHT22;24866;50.248;8.252;2022-11-20T04:49:38;0.80;99.90
37408;DHT22;24866;50.248;8.252;2022-11-20T04:52:07;0.90;99.90
37408;DHT22;24866;50.248;8.252;2022-11-20T04:54:37;0.90;99.90
37408;DHT22;24866;50.248;8.252;2022-11-20T04:57:08;0.80;99.90
37408;DHT22;24866;50.248;8.252;2022-11-20T04:59:38;0.70;99.90
37408;DHT22;24866;50.248;8.252;2022-11-20T05:02:09;0.60;99.90
37408;DHT22;24866;50.248;8.252;2022-11-20T05:04:39;0.60;99.90
37408;DHT22;24866;50.248;8.252;2022-11-20T05:07:09;0.50;99.90
37408;DHT22;24866;50.248;8.252;2022-11-20T05:09:39;0.30;99.90
37408;DHT22;24866;50.248;8.252;2022-11-20T05:12:10;0.20;99.90
37408;DHT22;24866;50.248;8.252;2022-11-20T05:14:40;0.20;99.90
37408;DHT22;24866;50.248;8.252;2022-11-20T05:17:10;0.20;99.90
37408;DHT22;24866;50.248;8.252;2022-11-20T05:19:40;0.10;99.90
37408;DHT22;24866;50.248;8.252;2022-11-20T05:22:10;0.10;99.90
37408;DHT22;24866;50.248;8.252;2022-11-20T05:24:40;0.00;99.90
37408;DHT22;24866;50.248;8.252;2022-11-20T05:27:11;-0.10;99.90
37408;DHT22;24866;50.248;8.252;2022-11-20T05:29:41;-0.10;99.90
37408;DHT22;24866;50.248;8.252;2022-11-20T05:32:11;0.00;99.90
37408;DHT22;24866;50.248;8.252;2022-11-20T05:34:41;-0.10;99.90
37408;DHT22;24866;50.248;8.252;2022-11-20T05:37:11;-0.10;99.90
37408;DHT22;24866;50.248;8.252;2022-11-20T05:39:41;0.10;99.90
37408;DHT22;24866;50.248;8.252;2022-11-20T05:42:12;0.10;99.90
37408;DHT22;24866;50.248;8.252;2022-11-20T05:45:02;0.10;99.90
37408;DHT22;24866;50.248;8.252;2022-11-20T05:47:34;0.20;99.90
37408;DHT22;24866;50.248;8.252;2022-11-20T05:50:04;0.20;99.90
37408;DHT22;24866;50.248;8.252;2022-11-20T05:52:34;0.40;99.90
37408;DHT22;24866;50.248;8.252;2022-11-20T05:55:05;0.40;99.90
37408;DHT22;24866;50.248;8.252;2022-11-20T05:57:36;0.40;99.90
37408;DHT22;24866;50.248;8.252;2022-11-20T06:00:07;0.60;99.90
37408;DHT22;24866;50.248;8.252;2022-11-20T06:02:37;0.60;99.90
37408;DHT22;24866;50.248;8.252;2022-11-20T06:05:08;0.70;99.90
37408;DHT22;24866;50.248;8.252;2022-11-20T06:07:38;0.40;99.90
37408;DHT22;24866;50.248;8.252;2022-11-20T06:10:08;0.50;99.90
37408;DHT22;24866;50.248;8.252;2022-11-20T06:12:39;0.30;99.90
37408;DHT22;24866;50.248;8.252;2022-11-20T06:15:10;0.20;99.90
37408;DHT22;24866;50.248;8.252;2022-11-20T06:17:40;0.20;99.90
37408;DHT22;24866;50.248;8.252;2022-11-20T06:20:10;0.20;99.90
37408;DHT22;24866;50.248;8.252;2022-11-20T06:22:40;0.20;99.90
37408;DHT22;24866;50.248;8.252;2022-11-20T06:25:10;0.20;99.90
37408;DHT22;24866;50.248;8.252;2022-11-20T06:27:41;0.10;99.90
37408;DHT22;24866;50.248;8.252;2022-11-20T06:30:12;0.10;99.90
37408;DHT22;24866;50.248;8.252;2022-11-20T06:32:42;0.10;99.90
37408;DHT22;24866;50.248;8.252;2022-11-20T06:35:12;0.00;99.90
37408;DHT22;24866;50.248;8.252;2022-11-20T06:37:42;0.10;99.90
37408;DHT22;24866;50.248;8.252;2022-11-20T06:40:12;0.10;99.90
37408;DHT22;24866;50.248;8.252;2022-11-20T06:42:44;0.10;99.90
37408;DHT22;24866;50.248;8.252;2022-11-20T06:45:14;0.10;99.90
37408;DHT22;24866;50.248;8.252;2022-11-20T06:47:44;0.20;99.90
37408;DHT22;24866;50.248;8.252;2022-11-20T06:50:14;0.30;99.90
37408;DHT22;24866;50.248;8.252;2022-11-20T06:52:43;0.50;99.90
37408;DHT22;24866;50.248;8.252;2022-11-20T06:55:13;0.40;99.90
37408;DHT22;24866;50.248;8.252;2022-11-20T06:57:45;0.40;99.90
37408;DHT22;24866;50.248;8.252;2022-11-20T07:00:15;0.50;99.90
37408;DHT22;24866;50.248;8.252;2022-11-20T07:02:45;0.50;99.90
37408;DHT22;24866;50.248;8.252;2022-11-20T07:05:15;0.50;99.90
37408;DHT22;24866;50.248;8.252;2022-11-20T07:07:45;0.50;99.90
37408;DHT22;24866;50.248;8.252;2022-11-20T07:10:15;0.40;99.90
37408;DHT22;24866;50.248;8.252;2022-11-20T07:12:50;0.60;99.90
37408;DHT22;24866;50.248;8.252;2022-11-20T07:15:21;0.70;99.90
37408;DHT22;24866;50.248;8.252;2022-11-20T07:17:52;0.60;99.90
37408;DHT22;24866;50.248;8.252;2022-11-20T07:20:21;0.50;99.90
37408;DHT22;24866;50.248;8.252;2022-11-20T07:22:53;0.50;99.90
37408;DHT22;24866;50.248;8.252;2022-11-20T07:25:24;0.50;99.90
37408;DHT22;24866;50.248;8.252;2022-11-20T07:27:58;0.50;99.90
37408;DHT22;24866;50.248;8.252;2022-11-20T07:30:28;0.50;99.90
37408;DHT22;24866;50.248;8.252;2022-11-20T07:32:58;0.50;99.90
37408;DHT22;24866;50.248;8.252;2022-11-20T07:35:28;0.50;99.90
37408;DHT22;24866;50.248;8.252;2022-11-20T07:37:58;0.40;99.90
37408;DHT22;24866;50.248;8.252;2022-11-20T07:40:28;0.30;99.90
37408;DHT22;24866;50.248;8.252;2022-11-20T07:42:59;0.30;99.90
37408;DHT22;24866;50.248;8.252;2022-11-20T07:45:29;0.30;99.90
37408;DHT22;24866;50.248;8.252;2022-11-20T07:47:59;0.10;99.90
37408;DHT22;24866;50.248;8.252;2022-11-20T07:50:29;0.10;99.90
37408;DHT22;24866;50.248;8.252;2022-11-20T07:53:03;0.10;99.90
37408;DHT22;24866;50.248;8.252;2022-11-20T07:55:33;0.00;99.90
37408;DHT22;24866;50.248;8.252;2022-11-20T07:58:05;0.10;99.90
37408;DHT22;24866;50.248;8.252;2022-11-20T08:00:35;0.20;99.90
37408;DHT22;24866;50.248;8.252;2022-11-20T08:03:05;0.30;99.90
37408;DHT22;24866;50.248;8.252;2022-11-20T08:05:35;0.10;99.90
37408;DHT22;24866;50.248;8.252;2022-11-20T08:08:05;0.10;99.90
37408;DHT22;24866;50.248;8.252;2022-11-20T08:10:36;0.30;99.90
37408;DHT22;24866;50.248;8.252;2022-11-20T08:13:08;0.30;99.90
37408;DHT22;24866;50.248;8.252;2022-11-20T08:15:56;0.30;99.90
37408;DHT22;24866;50.248;8.252;2022-11-20T08:18:27;0.20;99.90
37408;DHT22;24866;50.248;8.252;2022-11-20T08:21:01;0.30;99.90
37408;DHT22;24866;50.248;8.252;2022-11-20T08:23:31;0.50;99.90
37408;DHT22;24866;50.248;8.252;2022-11-20T08:26:01;0.40;99.90
37408;DHT22;24866;50.248;8.252;2022-11-20T08:28:32;0.50;99.90
37408;DHT22;24866;50.248;8.252;2022-11-20T08:31:03;0.60;99.90
37408;DHT22;24866;50.248;8.252;2022-11-20T08:33:33;0.40;99.90
37408;DHT22;24866;50.248;8.252;2022-11-20T08:36:05;0.50;99.90
37408;DHT22;24866;50.248;8.252;2022-11-20T08:38:35;0.60;99.90
37408;DHT22;24866;50.248;8.252;2022-11-20T08:41:05;0.90;99.90
37408;DHT22;24866;50.248;8.252;2022-11-20T08:43:57;0.90;99.90
37408;DHT22;24866;50.248;8.252;2022-11-20T08:46:31;0.60;99.90
37408;DHT22;24866;50.248;8.252;2022-11-20T08:49:03;0.90;99.90
37408;DHT22;24866;50.248;8.252;2022-11-20T08:51:33;0.80;99.90
37408;DHT22;24866;50.248;8.252;2022-11-20T08:54:04;1.00;99.90
37408;DHT22;24866;50.248;8.252;2022-11-20T08:56:35;1.20;99.90
37408;DHT22;24866;50.248;8.252;2022-11-20T08:59:06;1.10;99.90
37408;DHT22;24866;50.248;8.252;2022-11-20T09:01:36;1.20;99.90
37408;DHT22;24866;50.248;8.252;2022-11-20T09:04:06;1.30;99.90
37408;DHT22;24866;50.248;8.252;2022-11-20T09:06:36;1.20;99.90
37408;DHT22;24866;50.248;8.252;2022-11-20T09:09:06;1.40;99.90
37408;DHT22;24866;50.248;8.252;2022-11-20T09:11:36;1.60;99.90
37408;DHT22;24866;50.248;8.252;2022-11-20T09:14:07;1.70;99.90
37408;DHT22;24866;50.248;8.252;2022-11-20T09:16:37;1.80;99.90
37408;DHT22;24866;50.248;8.252;2022-11-20T09:19:07;1.90;99.90
37408;DHT22;24866;50.248;8.252;2022-11-20T09:21:38;1.90;99.90
37408;DHT22;24866;50.248;8.252;2022-11-20T09:24:08;2.00;99.90
37408;DHT22;24866;50.248;8.252;2022-11-20T09:26:38;2.00;99.90
37408;DHT22;24866;50.248;8.252;2022-11-20T09:29:09;2.10;99.90
37408;DHT22;24866;50.248;8.252;2022-11-20T09:31:39;2.10;99.90
37408;DHT22;24866;50.248;8.252;2022-11-20T09:34:09;2.20;99.90
37408;DHT22;24866;50.248;8.252;2022-11-20T09:36:39;2.10;99.90
37408;DHT22;24866;50.248;8.252;2022-11-20T09:39:09;2.00;99.90
37408;DHT22;24866;50.248;8.252;2022-11-20T09:42:04;2.10;99.90
37408;DHT22;24866;50.248;8.252;2022-11-20T09:45:04;2.30;99.90
37408;DHT22;24866;50.248;8.252;2022-11-20T09:47:49;2.60;99.90
37408;DHT22;24866;50.248;8.252;2022-11-20T09:50:27;2.60;99.90
37408;DHT22;24866;50.248;8.252;2022-11-20T09:53:11;2.60;99.90
37408;DHT22;24866;50.248;8.252;2022-11-20T09:55:41;2.70;99.90
37408;DHT22;24866;50.248;8.252;2022-11-20T09:58:18;2.90;99.90
37408;DHT22;24866;50.248;8.252;2022-11-20T10:00:52;2.90;99.90
37408;DHT22;24866;50.248;8.252;2022-11-20T10:03:32;3.00;99.90
37408;DHT22;24866;50.248;8.252;2022-11-20T10:06:09;2.90;99.90
37408;DHT22;24866;50.248;8.252;2022-11-20T10:08:45;2.90;99.90
37408;DHT22;24866;50.248;8.252;2022-11-20T10:11:24;2.90;99.90
37408;DHT22;24866;50.248;8.252;2022-11-20T10:14:07;2.90;99.90
37408;DHT22;24866;50.248;8.252;2022-11-20T10:16:43;2.90;99.90
37408;DHT22;24866;50.248;8.252;2022-11-20T10:19:28;2.90;99.90
37408;DHT22;24866;50.248;8.252;2022-11-20T10:22:09;3.00;99.90
37408;DHT22;24866;50.248;8.252;2022-11-20T10:24:54;3.10;99.90
37408;DHT22;24866;50.248;8.252;2022-11-20T10:27:43;3.20;99.90
37408;DHT22;24866;50.248;8.252;2022-11-20T10:30:19;3.00;99.90
37408;DHT22;24866;50.248;8.252;2022-11-20T10:32:54;3.00;99.90
37408;DHT22;24866;50.248;8.252;2022-11-20T10:35:27;3.00;99.90
37408;DHT22;24866;50.248;8.252;2022-11-20T10:38:00;3.10;99.90
37408;DHT22;24866;50.248;8.252;2022-11-20T10:40:35;3.10;99.90
37408;DHT22;24866;50.248;8.252;2022-11-20T10:43:11;3.20;99.90
37408;DHT22;24866;50.248;8.252;2022-11-20T10:45:55;3.20;99.90
37408;DHT22;24866;50.248;8.252;2022-11-20T10:48:29;3.20;99.90
37408;DHT22;24866;50.248;8.252;2022-11-20T10:51:15;3.10;99.90
37408;DHT22;24866;50.248;8.252;2022-11-20T10:53:58;3.00;99.90
37408;DHT22;24866;50.248;8.252;2022-11-20T10:56:31;3.10;99.90
37408;DHT22;24866;50.248;8.252;2022-11-20T11:02:19;3.30;99.90
37408;DHT22;24866;50.248;8.252;2022-11-20T11:04:52;3.30;99.90
37408;DHT22;24866;50.248;8.252;2022-11-20T11:07:24;3.30;99.90
37408;DHT22;24866;50.248;8.252;2022-11-20T11:09:56;3.40;99.90
37408;DHT22;24866;50.248;8.252;2022-11-20T11:12:28;3.30;99.90
37408;DHT22;24866;50.248;8.252;2022-11-20T11:14:58;3.10;99.90
37408;DHT22;24866;50.248;8.252;2022-11-20T11:17:29;3.30;99.90
37408;DHT22;24866;50.248;8.252;2022-11-20T11:20:04;3.10;99.90
37408;DHT22;24866;50.248;8.252;2022-11-20T11:22:42;3.30;99.90
37408;DHT22;24866;50.248;8.252;2022-11-20T11:25:27;3.20;99.90
37408;DHT22;24866;50.248;8.252;2022-11-20T11:27:59;3.30;99.90
37408;DHT22;24866;50.248;8.252;2022-11-20T11:30:40;3.30;99.90
37408;DHT22;24866;50.248;8.252;2022-11-20T11:33:17;3.20;99.90
37408;DHT22;24866;50.248;8.252;2022-11-20T11:35:50;3.40;99.90
37408;DHT22;24866;50.248;8.252;2022-11-20T11:38:27;3.30;99.90
37408;DHT22;24866;50.248;8.252;2022-11-20T11:40:58;3.40;99.90
37408;DHT22;24866;50.248;8.252;2022-11-20T11:43:31;3.60;99.90
37408;DHT22;24866;50.248;8.252;2022-11-20T11:46:32;3.70;99.90
37408;DHT22;24866;50.248;8.252;2022-11-20T11:49:15;3.80;99.90
37408;DHT22;24866;50.248;8.252;2022-11-20T11:51:59;3.70;99.90
37408;DHT22;24866;50.248;8.252;2022-11-20T11:54:37;4.00;99.90
37408;DHT22;24866;50.248;8.252;2022-11-20T11:57:12;4.10;99.90
37408;DHT22;24866;50.248;8.252;2022-11-20T11:59:53;4.20;99.90
37408;DHT22;24866;50.248;8.252;2022-11-20T12:02:32;4.30;99.90
37408;DHT22;24866;50.248;8.252;2022-11-20T12:05:13;4.40;99.90
37408;DHT22;24866;50.248;8.252;2022-11-20T12:07:50;4.10;99.90
37408;DHT22;24866;50.248;8.252;2022-11-20T12:10:32;4.00;99.90
37408;DHT22;24866;50.248;8.252;2022-11-20T12:13:13;4.20;99.90
37408;DHT22;24866;50.248;8.252;2022-11-20T12:15:46;4.40;99.90
37408;DHT22;24866;50.248;8.252;2022-11-20T12:18:18;4.20;99.90
37408;DHT22;24866;50.248;8.252;2022-11-20T12:21:00;4.30;99.90
37408;DHT22;24866;50.248;8.252;2022-11-20T12:23:44;4.30;99.90
37408;DHT22;24866;50.248;8.252;2022-11-20T12:26:33;4.40;99.90
37408;DHT22;24866;50.248;8.252;2022-11-20T12:29:11;4.40;99.90
37408;DHT22;24866;50.248;8.252;2022-11-20T12:32:01;4.50;99.90
37408;DHT22;24866;50.248;8.252;2022-11-20T12:34:47;4.60;99.90
37408;DHT22;24866;50.248;8.252;2022-11-20T12:37:30;4.70;99.90
37408;DHT22;24866;50.248;8.252;2022-11-20T12:40:18;4.80;99.90
37408;DHT22;24866;50.248;8.252;2022-11-20T12:43:03;4.80;99.90
37408;DHT22;24866;50.248;8.252;2022-11-20T12:46:05;4.80;99.90
37408;DHT22;24866;50.248;8.252;2022-11-20T12:51:51;4.80;99.90
37408;DHT22;24866;50.248;8.252;2022-11-20T12:54:49;4.70;99.90
37408;DHT22;24866;50.248;8.252;2022-11-20T12:57:31;4.80;99.90
37408;DHT22;24866;50.248;8.252;2022-11-20T13:00:11;4.70;99.90
37408;DHT22;24866;50.248;8.252;2022-11-20T13:05:55;4.90;99.90
37408;DHT22;24866;50.248;8.252;2022-11-20T13:08:33;4.90;99.90
37408;DHT22;24866;50.248;8.252;2022-11-20T13:11:10;5.00;99.90
37408;DHT22;24866;50.248;8.252;2022-11-20T13:13:54;5.10;99.90
37408;DHT22;24866;50.248;8.252;2022-11-20T13:16:33;5.10;99.90
37408;DHT22;24866;50.248;8.252;2022-11-20T13:19:11;5.10;99.90
37408;DHT22;24866;50.248;8.252;2022-11-20T13:21:42;5.00;99.90
37408;DHT22;24866;50.248;8.252;2022-11-20T13:24:34;5.00;99.90
37408;DHT22;24866;50.248;8.252;2022-11-20T13:27:17;5.10;99.90
37408;DHT22;24866;50.248;8.252;2022-11-20T13:30:02;5.00;99.90
37408;DHT22;24866;50.248;8.252;2022-11-20T13:32:51;5.00;99.90
37408;DHT22;24866;50.248;8.252;2022-11-20T13:35:27;4.90;99.90
37408;DHT22;24866;50.248;8.252;2022-11-20T13:38:03;4.90;99.90
37408;DHT22;24866;50.248;8.252;2022-11-20T13:40:36;4.90;99.90
37408;DHT22;24866;50.248;8.252;2022-11-20T13:43:20;5.00;99.90
37408;DHT22;24866;50.248;8.252;2022-11-20T13:45:57;5.10;99.90
37408;DHT22;24866;50.248;8.252;2022-11-20T13:48:31;5.10;99.90
37408;DHT22;24866;50.248;8.252;2022-11-20T13:51:20;5.00;99.90
37408;DHT22;24866;50.248;8.252;2022-11-20T13:54:07;5.10;99.90
37408;DHT22;24866;50.248;8.252;2022-11-20T13:56:50;5.10;99.90
37408;DHT22;24866;50.248;8.252;2022-11-20T13:59:35;5.20;99.90
37408;DHT22;24866;50.248;8.252;2022-11-20T14:02:13;5.20;99.90
37408;DHT22;24866;50.248;8.252;2022-11-20T14:04:47;5.20;99.90
37408;DHT22;24866;50.248;8.252;2022-11-20T14:07:19;5.20;99.90
37408;DHT22;24866;50.248;8.252;2022-11-20T14:09:51;5.10;99.90
37408;DHT22;24866;50.248;8.252;2022-11-20T14:12:23;5.20;99.90
37408;DHT22;24866;50.248;8.252;2022-11-20T14:14:57;5.10;99.90
37408;DHT22;24866;50.248;8.252;2022-11-20T14:17:32;5.10;99.90
37408;DHT22;24866;50.248;8.252;2022-11-20T14:20:05;5.10;99.90
37408;DHT22;24866;50.248;8.252;2022-11-20T14:22:35;5.10;99.90
37408;DHT22;24866;50.248;8.252;2022-11-20T14:25:17;5.10;99.90
37408;DHT22;24866;50.248;8.252;2022-11-20T14:27:52;5.00;99.90
37408;DHT22;24866;50.248;8.252;2022-11-20T14:30:24;5.10;99.90
37408;DHT22;24866;50.248;8.252;2022-11-20T14:33:01;5.10;99.90
37408;DHT22;24866;50.248;8.252;2022-11-20T14:35:37;5.00;99.90
37408;DHT22;24866;50.248;8.252;2022-11-20T14:38:12;4.90;99.90
37408;DHT22;24866;50.248;8.252;2022-11-20T14:40:43;4.90;99.90
37408;DHT22;24866;50.248;8.252;2022-11-20T14:43:22;4.90;99.90
37408;DHT22;24866;50.248;8.252;2022-11-20T14:45:57;4.90;99.90
37408;DHT22;24866;50.248;8.252;2022-11-20T14:48:33;4.80;99.90
37408;DHT22;24866;50.248;8.252;2022-11-20T14:51:03;4.80;99.90
37408;DHT22;24866;50.248;8.252;2022-11-20T14:53:33;4.80;99.90
37408;DHT22;24866;50.248;8.252;2022-11-20T14:56:04;4.80;99.90
37408;DHT22;24866;50.248;8.252;2022-11-20T14:58:34;4.80;99.90
37408;DHT22;24866;50.248;8.252;2022-11-20T15:01:06;4.80;99.90
37408;DHT22;24866;50.248;8.252;2022-11-20T15:03:39;4.70;99.90
37408;DHT22;24866;50.248;8.252;2022-11-20T15:06:11;4.70;99.90
37408;DHT22;24866;50.248;8.252;2022-11-20T15:08:51;4.70;99.90
37408;DHT22;24866;50.248;8.252;2022-11-20T15:11:27;4.70;99.90
37408;DHT22;24866;50.248;8.252;2022-11-20T15:14:02;4.60;99.90
37408;DHT22;24866;50.248;8.252;2022-11-20T15:16:33;4.60;99.90
37408;DHT22;24866;50.248;8.252;2022-11-20T15:19:12;4.50;99.90
37408;DHT22;24866;50.248;8.252;2022-11-20T15:21:45;4.50;99.90
37408;DHT22;24866;50.248;8.252;2022-11-20T15:24:16;4.50;99.90
37408;DHT22;24866;50.248;8.252;2022-11-20T15:26:46;4.50;99.90
37408;DHT22;24866;50.248;8.252;2022-11-20T15:29:24;4.50;99.90
37408;DHT22;24866;50.248;8.252;2022-11-20T15:31:55;4.50;99.90
37408;DHT22;24866;50.248;8.252;2022-11-20T15:34:27;4.50;99.90
37408;DHT22;24866;50.248;8.252;2022-11-20T15:36:58;4.50;99.90
37408;DHT22;24866;50.248;8.252;2022-11-20T15:39:28;4.40;99.90
37408;DHT22;24866;50.248;8.252;2022-11-20T15:41:58;4.40;99.90
37408;DHT22;24866;50.248;8.252;2022-11-20T15:44:27;4.40;99.90
37408;DHT22;24866;50.248;8.252;2022-11-20T15:46:58;4.40;99.90
37408;DHT22;24866;50.248;8.252;2022-11-20T15:49:29;4.40;99.90
37408;DHT22;24866;50.248;8.252;2022-11-20T15:51:59;4.40;99.90
37408;DHT22;24866;50.248;8.252;2022-11-20T15:54:30;4.40;99.90
37408;DHT22;24866;50.248;8.252;2022-11-20T15:57:01;4.40;99.90
37408;DHT22;24866;50.248;8.252;2022-11-20T15:59:34;4.40;99.90
37408;DHT22;24866;50.248;8.252;2022-11-20T16:02:09;4.40;99.90
37408;DHT22;24866;50.248;8.252;2022-11-20T16:04:45;4.40;99.90
37408;DHT22;24866;50.248;8.252;2022-11-20T16:07:15;4.40;99.90
37408;DHT22;24866;50.248;8.252;2022-11-20T16:09:45;4.40;99.90
37408;DHT22;24866;50.248;8.252;2022-11-20T16:12:15;4.40;99.90
37408;DHT22;24866;50.248;8.252;2022-11-20T16:15:07;4.50;99.90
37408;DHT22;24866;50.248;8.252;2022-11-20T16:17:54;4.50;99.90
37408;DHT22;24866;50.248;8.252;2022-11-20T16:20:26;4.60;99.90
37408;DHT22;24866;50.248;8.252;2022-11-20T16:22:58;4.60;99.90
37408;DHT22;24866;50.248;8.252;2022-11-20T16:25:28;4.60;99.90
37408;DHT22;24866;50.248;8.252;2022-11-20T16:27:58;4.60;99.90
37408;DHT22;24866;50.248;8.252;2022-11-20T16:30:29;4.60;99.90
37408;DHT22;24866;50.248;8.252;2022-11-20T16:33:00;4.60;99.90
37408;DHT22;24866;50.248;8.252;2022-11-20T16:35:32;4.70;99.90